• Join FlightAware (Why Join?)
  • Login
  • US Flag 
05:26PM EDT


 

Airport Tracker/Info


-or-


 

Live Flight TrackerFlight Track Log ✈ N552SR ✈ 12-Jun-2013 ✈ KBDR - KSYR

Flight Track Log - Related Links

Times and Time Zones

All times are in EDT time to prevent confusion due to time zone crossing. See the N552SR flight status page for this flight to view local times or setup timezone preferences in your user account.

Time Position Orientation Groundspeed Altitude Reporting Facility
EDT Latitude Longitude Course Direction KTS MPH feet Rate Location/Type
11:52AM 41.2000 -73.1667 360° North 112 129 1,800  Level New York TRACON
11:53AM 41.2333 -73.1667 360° North 127 146 2,700 840 Climbing New York TRACON
11:54AM 41.2667 -73.1833 339° North 126 145 3,500 780 Climbing New York TRACON
11:54AM 41.2833 -73.2000 323° Northwest 118 136 4,200 780 Climbing New York TRACON
11:56AM 41.3167 -73.2000 360° North 122 140 5,100 780 Climbing New York TRACON
11:57AM 41.3500 -73.2167 339° North 115 132 5,900 720 Climbing New York TRACON
11:58AM 41.3833 -73.2333 339° North 104 120 6,600 540 Climbing New York TRACON
11:59AM 41.4167 -73.2333 360° North 124 143 7,000 120 Climbing New York TRACON
12:00PM 41.4500 -73.2500 339° North 131 151 6,900  Descending New York TRACON
12:00PM 41.4783 -73.2631 341° North 139 160 7,000 300 Climbing Boston Center
12:01PM 41.5158 -73.2744 347° North 125 144 7,500 360 Climbing Boston Center
12:02PM 41.5428 -73.2833 346° North 110 127 7,800 180 Climbing Boston Center
12:03PM 41.5739 -73.2947 345° North 110 127 7,900  Climbing Boston Center
12:04PM 41.6114 -73.3092 344° North 116 133 7,900  Level Boston Center
12:05PM 41.6406 -73.3233 340° North 126 145 7,900  Level Boston Center
12:06PM 41.6569 -73.3597 301° West 120 138 7,900  Level Boston Center
12:07PM 41.6814 -73.4047 306° West 130 150 8,000  Climbing Boston Center
12:08PM 41.7061 -73.4494 307° West 136 157 8,000  Level Boston Center
12:09PM 41.7267 -73.4858 307° West 136 157 8,000 -60 Level Boston Center
12:10PM 41.7492 -73.5281 306° West 136 157 7,900  Descending Boston Center
12:11PM 41.7694 -73.5644 307° West 136 157 8,000  Climbing Boston Center
12:12PM 41.7961 -73.6097 308° West 136 157 8,000  Level Boston Center
12:13PM 41.8167 -73.6489 305° West 136 157 8,000  Level Boston Center
12:14PM 41.8392 -73.6939 304° West 136 157 8,000 -60 Level Boston Center
12:15PM 41.8617 -73.7336 307° West 136 157 7,900  Descending Boston Center
12:16PM 41.8881 -73.7786 308° West 136 157 8,000  Climbing Boston Center
12:17PM 41.9086 -73.8181 305° West 141 162 8,000  Level Boston Center
12:18PM 41.9350 -73.8633 308° West 146 168 8,000  Level Boston Center
12:19PM 41.9553 -73.9058 303° West 146 168 8,000  Level Boston Center
12:20PM 41.9819 -73.9511 308° West 146 168 8,000  Level Boston Center
12:21PM 42.0022 -73.9906 305° West 146 168 8,000  Level Boston Center
12:22PM 42.0306 -74.0417 307° West 146 168 8,000  Level Boston Center
12:23PM 42.0508 -74.0814 305° West 145 167 8,000  Level Boston Center
12:24PM 42.0731 -74.1239 305° West 145 167 8,100  Climbing Boston Center
12:25PM 42.0994 -74.1722 306° West 150 173 8,100  Level Boston Center
12:26PM 42.1197 -74.2089 307° West 145 167 8,100  Level Boston Center
12:27PM 42.1461 -74.2575 306° West 145 167 8,100  Level Boston Center
12:28PM 42.1664 -74.2972 305° West 151 174 8,100  Level Boston Center
12:29PM 42.1928 -74.3456 306° West 150 173 8,100  Level Boston Center
12:31PM 42.2150 -74.3856 307° West 150 173 8,100  Level Boston Center
12:32PM 42.2453 -74.4369 309° West 150 173 8,100 -60 Level Boston Center
12:33PM 42.2717 -74.4828 308° West 150 173 8,000  Descending Boston Center
12:34PM 42.2936 -74.5283 303° West 150 173 8,100  Climbing Boston Center
12:35PM 42.3136 -74.5767 299° West 150 173 8,100 -60 Level Boston Center
12:36PM 42.3400 -74.6169 312° West 142 163 8,000 -60 Descending Boston Center
12:37PM 42.3639 -74.6656 304° West 142 163 8,000  Level Boston Center
12:38PM 42.3881 -74.7114 306° West 152 175 8,000  Level Boston Center
12:39PM 42.4183 -74.7661 307° West 152 175 8,000  Level Boston Center
12:40PM 42.4383 -74.8033 306° West 152 175 8,000  Level Boston Center
12:41PM 42.4683 -74.8581 307° West 157 181 8,000  Level Boston Center
12:42PM 42.4925 -74.9067 304° West 157 181 8,000  Level Boston Center
12:43PM 42.5164 -74.9528 305° West 151 174 8,000  Level Boston Center
12:44PM 42.5403 -74.9989 305° West 151 174 8,000  Level Boston Center
12:45PM 42.5642 -75.0478 304° West 151 174 8,000  Level Boston Center
12:46PM 42.5903 -75.0939 308° West 151 174 8,000  Level Boston Center
12:47PM 42.6142 -75.1400 305° West 151 174 8,000  Level Boston Center
12:48PM 42.6381 -75.1892 303° West 162 186 8,000  Level Boston Center
12:48PM 42.6442 -75.1950 325° Northwest 151 174 8,000  Level Boston Center
12:49PM 42.6642 -75.2356 304° West 159 183 8,000  Level Boston Center
12:49PM 42.6739 -75.2558 303° West 156 180 8,000  Level Boston Center
12:50PM 42.6900 -75.2847 307° West 155 178 8,000  Level Boston Center
12:50PM 42.7019 -75.3050 309° West 156 180 8,000  Level Boston Center
12:51PM 42.7117 -75.3308 297° West 155 178 8,000  Level Boston Center
12:51PM 42.7258 -75.3514 313° West 151 174 8,000  Level Boston Center
12:52PM 42.7356 -75.3800 295° West 155 178 8,000  Level Boston Center
12:52PM 42.7517 -75.4006 317° Northwest 151 174 8,000 -120 Level Boston Center
12:53PM 42.7633 -75.4322 297° West 156 180 7,900 -300 Descending Boston Center
12:53PM 42.7753 -75.4472 317° Northwest 151 174 7,700 -540 Descending Boston Center
12:54PM 42.7892 -75.4817 299° West 162 186 7,400 -420 Descending Boston Center
12:54PM 42.8031 -75.5022 313° West 156 180 7,300 -420 Descending Boston Center
12:55PM 42.8189 -75.5369 302° West 168 193 7,000 -540 Descending Boston Center
12:55PM 42.8267 -75.5514 306° West 163 188 6,800 -540 Descending Boston Center
12:56PM 42.8467 -75.5867 308° West 171 197 6,500 -600 Descending Boston Center
12:56PM 42.8567 -75.6069 304° West 163 188 6,200 -600 Descending Boston Center
12:57PM 42.8722 -75.6417 301° West 176 203 5,900 -540 Descending Boston Center
12:57PM 42.8844 -75.6564 319° Northwest 170 196 5,700 -540 Descending Boston Center
12:58PM 42.8978 -75.6939 296° West 171 197 5,400 -540 Descending Boston Center
12:58PM 42.9119 -75.7117 317° Northwest 175 201 5,200 -540 Descending Boston Center
12:59PM 42.9294 -75.7553 299° West 170 196 4,800 -540 Descending Boston Center
12:59PM 42.9375 -75.7614 331° Northwest 175 201 4,600 -600 Descending Boston Center
01:00PM 42.9592 -75.8108 301° West 180 207 4,200 -540 Descending Boston Center
01:00PM 42.9692 -75.8256 313° West 188 216 4,100 -240 Descending Boston Center
01:01PM 42.9847 -75.8633 299° West 181 208 4,000 -120 Descending Boston Center
01:01PM 43.0006 -75.8869 313° West 182 209 4,000 -480 Level Boston Center
01:02PM 43.0122 -75.9131 301° West 173 199 3,600 -900 Descending Boston Center
01:02PM 43.0281 -75.9425 306° West 182 209 3,100 -840 Descending Boston Center
01:03PM 43.0397 -75.9744 297° West 179 206 2,700 -960 Descending Boston Center
01:04PM 43.0697 -76.0158 315° West 160 184 1,800 -900 Descending Boston Center
01:06PM 43.1000 -76.1000 304° West  Level FlightAware Approximate
01:13PM 43.1112 -76.1063 304° West  Level Estimated
01:14PM 43.1112 -76.1063 304° West  Level Estimated
01:15PM 43.1112 -76.1063 304° West  Level Estimated